sensor_id;sensor_type;location;lat;lon;timestamp;temperature;humidity
19888;DHT22;10106;51.332;12.336;2023-08-20T00:01:25;25.20;99.90
19888;DHT22;10106;51.332;12.336;2023-08-20T00:03:54;25.10;99.90
19888;DHT22;10106;51.332;12.336;2023-08-20T00:06:20;25.10;99.90
19888;DHT22;10106;51.332;12.336;2023-08-20T00:08:46;25.10;99.90
19888;DHT22;10106;51.332;12.336;2023-08-20T00:11:12;25.00;99.90
19888;DHT22;10106;51.332;12.336;2023-08-20T00:13:38;25.00;99.90
19888;DHT22;10106;51.332;12.336;2023-08-20T00:16:04;25.00;99.90
19888;DHT22;10106;51.332;12.336;2023-08-20T00:18:30;24.90;99.90
19888;DHT22;10106;51.332;12.336;2023-08-20T00:20:56;24.90;99.90
19888;DHT22;10106;51.332;12.336;2023-08-20T00:23:21;24.90;99.90
19888;DHT22;10106;51.332;12.336;2023-08-20T00:25:47;24.90;99.90
19888;DHT22;10106;51.332;12.336;2023-08-20T00:28:13;24.80;99.90
19888;DHT22;10106;51.332;12.336;2023-08-20T00:30:39;24.70;99.90
19888;DHT22;10106;51.332;12.336;2023-08-20T00:33:04;24.70;99.90
19888;DHT22;10106;51.332;12.336;2023-08-20T00:35:30;24.60;99.90
19888;DHT22;10106;51.332;12.336;2023-08-20T00:37:56;24.60;99.90
19888;DHT22;10106;51.332;12.336;2023-08-20T00:40:21;24.50;99.90
19888;DHT22;10106;51.332;12.336;2023-08-20T00:42:47;24.50;99.90
19888;DHT22;10106;51.332;12.336;2023-08-20T00:45:12;24.40;99.90
19888;DHT22;10106;51.332;12.336;2023-08-20T00:47:38;24.40;99.90
19888;DHT22;10106;51.332;12.336;2023-08-20T00:50:04;24.30;99.90
19888;DHT22;10106;51.332;12.336;2023-08-20T00:52:32;24.20;99.90
19888;DHT22;10106;51.332;12.336;2023-08-20T00:54:58;24.20;99.90
19888;DHT22;10106;51.332;12.336;2023-08-20T00:57:23;24.20;99.90
19888;DHT22;10106;51.332;12.336;2023-08-20T00:59:52;24.20;99.90
19888;DHT22;10106;51.332;12.336;2023-08-20T01:02:22;24.20;99.90
19888;DHT22;10106;51.332;12.336;2023-08-20T01:04:50;24.10;99.90
19888;DHT22;10106;51.332;12.336;2023-08-20T01:07:31;24.10;99.90
19888;DHT22;10106;51.332;12.336;2023-08-20T01:12:49;24.00;99.90
19888;DHT22;10106;51.332;12.336;2023-08-20T01:15:17;24.00;99.90
19888;DHT22;10106;51.332;12.336;2023-08-20T01:17:50;23.90;99.90
19888;DHT22;10106;51.332;12.336;2023-08-20T01:20:20;23.90;99.90
19888;DHT22;10106;51.332;12.336;2023-08-20T01:30:18;23.80;99.90
19888;DHT22;10106;51.332;12.336;2023-08-20T01:32:44;23.80;99.90
19888;DHT22;10106;51.332;12.336;2023-08-20T01:35:13;23.80;99.90
19888;DHT22;10106;51.332;12.336;2023-08-20T01:37:53;23.80;99.90
19888;DHT22;10106;51.332;12.336;2023-08-20T01:40:21;23.70;99.90
19888;DHT22;10106;51.332;12.336;2023-08-20T01:42:46;23.70;99.90
19888;DHT22;10106;51.332;12.336;2023-08-20T01:45:12;23.70;99.90
19888;DHT22;10106;51.332;12.336;2023-08-20T01:47:40;23.70;99.90
19888;DHT22;10106;51.332;12.336;2023-08-20T01:50:08;23.60;99.90
19888;DHT22;10106;51.332;12.336;2023-08-20T01:52:37;23.60;99.90
19888;DHT22;10106;51.332;12.336;2023-08-20T01:55:05;23.50;99.90
19888;DHT22;10106;51.332;12.336;2023-08-20T01:57:30;23.50;99.90
19888;DHT22;10106;51.332;12.336;2023-08-20T01:59:58;23.40;99.90
19888;DHT22;10106;51.332;12.336;2023-08-20T02:02:24;23.30;99.90
19888;DHT22;10106;51.332;12.336;2023-08-20T02:04:50;23.30;99.90
19888;DHT22;10106;51.332;12.336;2023-08-20T02:07:25;23.20;99.90
19888;DHT22;10106;51.332;12.336;2023-08-20T02:09:50;23.20;99.90
19888;DHT22;10106;51.332;12.336;2023-08-20T02:12:18;23.10;99.90
19888;DHT22;10106;51.332;12.336;2023-08-20T02:14:49;23.10;99.90
19888;DHT22;10106;51.332;12.336;2023-08-20T02:17:16;23.00;99.90
19888;DHT22;10106;51.332;12.336;2023-08-20T02:19:49;23.00;99.90
19888;DHT22;10106;51.332;12.336;2023-08-20T02:22:14;22.90;99.90
19888;DHT22;10106;51.332;12.336;2023-08-20T02:24:40;22.90;99.90
19888;DHT22;10106;51.332;12.336;2023-08-20T02:27:06;22.90;99.90
19888;DHT22;10106;51.332;12.336;2023-08-20T02:29:31;22.90;99.90
19888;DHT22;10106;51.332;12.336;2023-08-20T02:31:57;22.80;99.90
19888;DHT22;10106;51.332;12.336;2023-08-20T02:34:22;22.80;99.90
19888;DHT22;10106;51.332;12.336;2023-08-20T02:36:48;22.80;99.90
19888;DHT22;10106;51.332;12.336;2023-08-20T02:39:14;22.80;99.90
19888;DHT22;10106;51.332;12.336;2023-08-20T02:41:39;22.70;99.90
19888;DHT22;10106;51.332;12.336;2023-08-20T02:44:05;22.70;99.90
19888;DHT22;10106;51.332;12.336;2023-08-20T02:46:30;22.70;99.90
19888;DHT22;10106;51.332;12.336;2023-08-20T02:48:56;22.70;99.90
19888;DHT22;10106;51.332;12.336;2023-08-20T02:51:22;22.70;99.90
19888;DHT22;10106;51.332;12.336;2023-08-20T02:53:47;22.70;99.90
19888;DHT22;10106;51.332;12.336;2023-08-20T02:56:13;22.60;99.90
19888;DHT22;10106;51.332;12.336;2023-08-20T02:58:39;22.60;99.90
19888;DHT22;10106;51.332;12.336;2023-08-20T03:01:04;22.60;99.90
19888;DHT22;10106;51.332;12.336;2023-08-20T03:03:30;22.60;99.90
19888;DHT22;10106;51.332;12.336;2023-08-20T03:05:56;22.60;99.90
19888;DHT22;10106;51.332;12.336;2023-08-20T03:08:22;22.60;99.90
19888;DHT22;10106;51.332;12.336;2023-08-20T03:10:47;22.60;99.90
19888;DHT22;10106;51.332;12.336;2023-08-20T03:13:13;22.60;99.90
19888;DHT22;10106;51.332;12.336;2023-08-20T03:15:39;22.50;99.90
19888;DHT22;10106;51.332;12.336;2023-08-20T03:18:05;22.50;99.90
19888;DHT22;10106;51.332;12.336;2023-08-20T03:20:31;22.50;99.90
19888;DHT22;10106;51.332;12.336;2023-08-20T03:22:56;22.50;99.90
19888;DHT22;10106;51.332;12.336;2023-08-20T03:25:22;22.50;99.90
19888;DHT22;10106;51.332;12.336;2023-08-20T03:27:49;22.50;99.90
19888;DHT22;10106;51.332;12.336;2023-08-20T03:30:15;22.50;99.90
19888;DHT22;10106;51.332;12.336;2023-08-20T03:32:40;22.40;99.90
19888;DHT22;10106;51.332;12.336;2023-08-20T03:35:06;22.40;99.90
19888;DHT22;10106;51.332;12.336;2023-08-20T03:37:32;22.40;99.90
19888;DHT22;10106;51.332;12.336;2023-08-20T03:39:57;22.30;99.90
19888;DHT22;10106;51.332;12.336;2023-08-20T03:42:23;22.30;99.90
19888;DHT22;10106;51.332;12.336;2023-08-20T03:44:48;22.30;99.90
19888;DHT22;10106;51.332;12.336;2023-08-20T03:47:14;22.30;99.90
19888;DHT22;10106;51.332;12.336;2023-08-20T03:49:46;22.30;99.90
19888;DHT22;10106;51.332;12.336;2023-08-20T03:52:12;22.30;99.90
19888;DHT22;10106;51.332;12.336;2023-08-20T03:54:37;22.30;99.90
19888;DHT22;10106;51.332;12.336;2023-08-20T03:57:03;22.20;99.90
19888;DHT22;10106;51.332;12.336;2023-08-20T03:59:29;22.20;99.90
19888;DHT22;10106;51.332;12.336;2023-08-20T04:01:55;22.10;99.90
19888;DHT22;10106;51.332;12.336;2023-08-20T04:04:20;22.10;99.90
19888;DHT22;10106;51.332;12.336;2023-08-20T04:06:47;22.00;99.90
19888;DHT22;10106;51.332;12.336;2023-08-20T04:09:12;22.00;99.90
19888;DHT22;10106;51.332;12.336;2023-08-20T04:11:38;22.00;99.90
19888;DHT22;10106;51.332;12.336;2023-08-20T04:14:03;21.90;99.90
19888;DHT22;10106;51.332;12.336;2023-08-20T04:16:29;22.00;99.90
19888;DHT22;10106;51.332;12.336;2023-08-20T04:18:55;21.90;99.90
19888;DHT22;10106;51.332;12.336;2023-08-20T04:21:21;21.90;99.90
19888;DHT22;10106;51.332;12.336;2023-08-20T04:23:47;21.80;99.90
19888;DHT22;10106;51.332;12.336;2023-08-20T04:26:12;21.90;99.90
19888;DHT22;10106;51.332;12.336;2023-08-20T04:28:38;21.80;99.90
19888;DHT22;10106;51.332;12.336;2023-08-20T04:31:04;21.90;99.90
19888;DHT22;10106;51.332;12.336;2023-08-20T04:33:29;21.80;99.90
19888;DHT22;10106;51.332;12.336;2023-08-20T04:35:55;21.80;99.90
19888;DHT22;10106;51.332;12.336;2023-08-20T04:38:21;21.80;99.90
19888;DHT22;10106;51.332;12.336;2023-08-20T04:40:47;21.70;99.90
19888;DHT22;10106;51.332;12.336;2023-08-20T04:43:13;21.70;99.90
19888;DHT22;10106;51.332;12.336;2023-08-20T04:45:39;21.80;99.90
19888;DHT22;10106;51.332;12.336;2023-08-20T04:48:04;21.60;99.90
19888;DHT22;10106;51.332;12.336;2023-08-20T04:50:30;21.80;99.90
19888;DHT22;10106;51.332;12.336;2023-08-20T04:52:55;21.70;99.90
19888;DHT22;10106;51.332;12.336;2023-08-20T04:55:21;21.60;99.90
19888;DHT22;10106;51.332;12.336;2023-08-20T04:57:47;21.60;99.90
19888;DHT22;10106;51.332;12.336;2023-08-20T05:08:05;21.60;99.90
19888;DHT22;10106;51.332;12.336;2023-08-20T05:10:35;21.70;99.90
19888;DHT22;10106;51.332;12.336;2023-08-20T05:13:01;21.60;99.90
19888;DHT22;10106;51.332;12.336;2023-08-20T05:15:26;21.60;99.90
19888;DHT22;10106;51.332;12.336;2023-08-20T05:17:52;21.70;99.90
19888;DHT22;10106;51.332;12.336;2023-08-20T05:20:18;21.70;99.90
19888;DHT22;10106;51.332;12.336;2023-08-20T05:22:46;21.80;99.90
19888;DHT22;10106;51.332;12.336;2023-08-20T05:25:21;21.90;99.90
19888;DHT22;10106;51.332;12.336;2023-08-20T05:27:47;21.90;99.90
19888;DHT22;10106;51.332;12.336;2023-08-20T05:30:13;22.00;99.90
19888;DHT22;10106;51.332;12.336;2023-08-20T05:32:38;22.10;99.90
19888;DHT22;10106;51.332;12.336;2023-08-20T05:35:04;22.20;99.90
19888;DHT22;10106;51.332;12.336;2023-08-20T05:37:30;22.30;99.90
19888;DHT22;10106;51.332;12.336;2023-08-20T05:39:55;22.40;99.90
19888;DHT22;10106;51.332;12.336;2023-08-20T05:42:21;22.50;99.90
19888;DHT22;10106;51.332;12.336;2023-08-20T05:44:46;22.60;99.90
19888;DHT22;10106;51.332;12.336;2023-08-20T05:47:12;22.80;99.90
19888;DHT22;10106;51.332;12.336;2023-08-20T05:49:38;23.20;99.90
19888;DHT22;10106;51.332;12.336;2023-08-20T05:52:03;23.60;99.90
19888;DHT22;10106;51.332;12.336;2023-08-20T05:54:29;23.80;99.90
19888;DHT22;10106;51.332;12.336;2023-08-20T05:56:54;24.00;99.90
19888;DHT22;10106;51.332;12.336;2023-08-20T05:59:20;24.00;99.90
19888;DHT22;10106;51.332;12.336;2023-08-20T06:01:46;24.20;99.90
19888;DHT22;10106;51.332;12.336;2023-08-20T06:04:11;24.00;99.90
19888;DHT22;10106;51.332;12.336;2023-08-20T06:06:37;23.90;99.90
19888;DHT22;10106;51.332;12.336;2023-08-20T06:09:02;23.80;99.90
19888;DHT22;10106;51.332;12.336;2023-08-20T06:11:28;23.70;99.90
19888;DHT22;10106;51.332;12.336;2023-08-20T06:13:54;23.60;99.90
19888;DHT22;10106;51.332;12.336;2023-08-20T06:16:19;23.60;99.90
19888;DHT22;10106;51.332;12.336;2023-08-20T06:18:45;23.60;99.90
19888;DHT22;10106;51.332;12.336;2023-08-20T06:21:10;23.50;99.90
19888;DHT22;10106;51.332;12.336;2023-08-20T06:23:36;23.60;99.90
19888;DHT22;10106;51.332;12.336;2023-08-20T06:26:04;23.80;99.90
19888;DHT22;10106;51.332;12.336;2023-08-20T06:28:33;24.10;99.90
19888;DHT22;10106;51.332;12.336;2023-08-20T06:31:01;24.40;99.90
19888;DHT22;10106;51.332;12.336;2023-08-20T06:33:26;24.40;99.90
19888;DHT22;10106;51.332;12.336;2023-08-20T06:35:52;24.50;99.90
19888;DHT22;10106;51.332;12.336;2023-08-20T06:38:18;24.50;99.90
19888;DHT22;10106;51.332;12.336;2023-08-20T06:40:46;24.40;99.90
19888;DHT22;10106;51.332;12.336;2023-08-20T06:43:12;24.20;99.90
19888;DHT22;10106;51.332;12.336;2023-08-20T06:45:37;24.20;99.90
19888;DHT22;10106;51.332;12.336;2023-08-20T06:48:03;24.20;99.90
19888;DHT22;10106;51.332;12.336;2023-08-20T06:50:28;24.60;99.90
19888;DHT22;10106;51.332;12.336;2023-08-20T06:52:54;25.30;99.90
19888;DHT22;10106;51.332;12.336;2023-08-20T06:55:20;25.60;99.90
19888;DHT22;10106;51.332;12.336;2023-08-20T06:57:45;25.60;99.90
19888;DHT22;10106;51.332;12.336;2023-08-20T07:00:11;25.40;99.90
19888;DHT22;10106;51.332;12.336;2023-08-20T07:02:36;25.10;99.90
19888;DHT22;10106;51.332;12.336;2023-08-20T07:05:02;25.00;99.90
19888;DHT22;10106;51.332;12.336;2023-08-20T07:07:28;24.90;99.90
19888;DHT22;10106;51.332;12.336;2023-08-20T07:09:54;25.00;99.90
19888;DHT22;10106;51.332;12.336;2023-08-20T07:12:20;26.60;99.90
19888;DHT22;10106;51.332;12.336;2023-08-20T07:14:45;28.70;99.90
19888;DHT22;10106;51.332;12.336;2023-08-20T07:17:13;30.30;99.90
19888;DHT22;10106;51.332;12.336;2023-08-20T07:19:39;30.50;99.90
19888;DHT22;10106;51.332;12.336;2023-08-20T07:22:12;31.20;99.90
19888;DHT22;10106;51.332;12.336;2023-08-20T07:24:37;30.90;99.90
19888;DHT22;10106;51.332;12.336;2023-08-20T07:27:03;30.50;99.90
19888;DHT22;10106;51.332;12.336;2023-08-20T07:29:36;29.70;99.90
19888;DHT22;10106;51.332;12.336;2023-08-20T07:32:01;28.90;99.90
19888;DHT22;10106;51.332;12.336;2023-08-20T07:34:28;28.20;99.90
19888;DHT22;10106;51.332;12.336;2023-08-20T07:36:54;27.20;99.90
19888;DHT22;10106;51.332;12.336;2023-08-20T07:39:20;26.60;99.90
19888;DHT22;10106;51.332;12.336;2023-08-20T07:41:46;26.00;99.90
19888;DHT22;10106;51.332;12.336;2023-08-20T07:44:11;25.50;99.90
19888;DHT22;10106;51.332;12.336;2023-08-20T07:46:37;25.40;99.90
19888;DHT22;10106;51.332;12.336;2023-08-20T07:49:03;25.60;99.90
19888;DHT22;10106;51.332;12.336;2023-08-20T07:51:28;28.30;99.90
19888;DHT22;10106;51.332;12.336;2023-08-20T07:53:54;31.50;99.90
19888;DHT22;10106;51.332;12.336;2023-08-20T07:56:20;33.70;99.90
19888;DHT22;10106;51.332;12.336;2023-08-20T07:58:46;34.70;99.90
19888;DHT22;10106;51.332;12.336;2023-08-20T08:01:12;34.40;99.90
19888;DHT22;10106;51.332;12.336;2023-08-20T08:03:46;34.00;99.90
19888;DHT22;10106;51.332;12.336;2023-08-20T08:06:12;33.00;99.90
19888;DHT22;10106;51.332;12.336;2023-08-20T08:08:37;32.30;99.90
19888;DHT22;10106;51.332;12.336;2023-08-20T08:11:03;32.60;99.90
19888;DHT22;10106;51.332;12.336;2023-08-20T08:13:29;32.60;99.90
19888;DHT22;10106;51.332;12.336;2023-08-20T08:15:54;32.30;99.90
19888;DHT22;10106;51.332;12.336;2023-08-20T08:18:20;31.90;99.90
19888;DHT22;10106;51.332;12.336;2023-08-20T08:20:46;31.40;99.90
19888;DHT22;10106;51.332;12.336;2023-08-20T08:23:12;31.10;99.90
19888;DHT22;10106;51.332;12.336;2023-08-20T08:25:40;30.80;99.90
19888;DHT22;10106;51.332;12.336;2023-08-20T08:28:05;30.60;99.90
19888;DHT22;10106;51.332;12.336;2023-08-20T08:30:31;30.80;99.90
19888;DHT22;10106;51.332;12.336;2023-08-20T08:32:57;30.80;99.90
19888;DHT22;10106;51.332;12.336;2023-08-20T08:35:23;30.30;99.90
19888;DHT22;10106;51.332;12.336;2023-08-20T08:37:49;30.70;99.90
19888;DHT22;10106;51.332;12.336;2023-08-20T08:40:14;32.30;99.90
19888;DHT22;10106;51.332;12.336;2023-08-20T08:42:40;34.20;99.90
19888;DHT22;10106;51.332;12.336;2023-08-20T08:45:06;35.30;96.80
19888;DHT22;10106;51.332;12.336;2023-08-20T08:47:32;36.30;93.30
19888;DHT22;10106;51.332;12.336;2023-08-20T08:49:58;37.10;91.40
19888;DHT22;10106;51.332;12.336;2023-08-20T08:52:23;38.20;87.00
19888;DHT22;10106;51.332;12.336;2023-08-20T08:54:50;38.40;84.60
19888;DHT22;10106;51.332;12.336;2023-08-20T08:57:18;38.30;82.80
19888;DHT22;10106;51.332;12.336;2023-08-20T08:59:44;39.00;81.20
19888;DHT22;10106;51.332;12.336;2023-08-20T09:02:10;39.30;78.30
19888;DHT22;10106;51.332;12.336;2023-08-20T09:04:42;39.40;76.40
19888;DHT22;10106;51.332;12.336;2023-08-20T09:07:14;40.00;74.20
19888;DHT22;10106;51.332;12.336;2023-08-20T09:09:46;40.20;75.00
19888;DHT22;10106;51.332;12.336;2023-08-20T09:12:14;39.60;73.10
19888;DHT22;10106;51.332;12.336;2023-08-20T09:14:42;39.70;73.40
19888;DHT22;10106;51.332;12.336;2023-08-20T09:17:08;39.70;72.50
19888;DHT22;10106;51.332;12.336;2023-08-20T09:19:37;38.90;73.50
19888;DHT22;10106;51.332;12.336;2023-08-20T09:22:05;39.00;72.60
19888;DHT22;10106;51.332;12.336;2023-08-20T09:24:38;38.60;73.80
19888;DHT22;10106;51.332;12.336;2023-08-20T09:27:05;38.80;73.40
19888;DHT22;10106;51.332;12.336;2023-08-20T09:29:31;39.40;72.90
19888;DHT22;10106;51.332;12.336;2023-08-20T09:32:01;39.60;71.30
19888;DHT22;10106;51.332;12.336;2023-08-20T09:34:37;38.30;73.30
19888;DHT22;10106;51.332;12.336;2023-08-20T09:37:07;38.20;73.80
19888;DHT22;10106;51.332;12.336;2023-08-20T09:39:33;37.10;75.90
19888;DHT22;10106;51.332;12.336;2023-08-20T09:41:59;37.70;76.00
19888;DHT22;10106;51.332;12.336;2023-08-20T09:44:25;37.80;75.90
19888;DHT22;10106;51.332;12.336;2023-08-20T09:46:52;38.60;75.00
19888;DHT22;10106;51.332;12.336;2023-08-20T09:56:58;39.60;70.60
19888;DHT22;10106;51.332;12.336;2023-08-20T09:59:26;40.00;69.00
19888;DHT22;10106;51.332;12.336;2023-08-20T10:01:52;40.10;68.30
19888;DHT22;10106;51.332;12.336;2023-08-20T10:04:19;38.80;69.60
19888;DHT22;10106;51.332;12.336;2023-08-20T10:06:49;38.30;70.70
19888;DHT22;10106;51.332;12.336;2023-08-20T10:09:18;38.10;71.10
19888;DHT22;10106;51.332;12.336;2023-08-20T10:11:47;37.60;71.20
19888;DHT22;10106;51.332;12.336;2023-08-20T10:14:14;36.40;72.50
19888;DHT22;10106;51.332;12.336;2023-08-20T10:16:42;34.80;76.10
19888;DHT22;10106;51.332;12.336;2023-08-20T10:19:08;33.50;81.40
19888;DHT22;10106;51.332;12.336;2023-08-20T10:21:34;32.10;88.70
19888;DHT22;10106;51.332;12.336;2023-08-20T10:24:06;30.90;95.50
19888;DHT22;10106;51.332;12.336;2023-08-20T10:26:33;30.50;99.90
19888;DHT22;10106;51.332;12.336;2023-08-20T10:31:46;30.20;99.90
19888;DHT22;10106;51.332;12.336;2023-08-20T10:34:12;30.20;99.90
19888;DHT22;10106;51.332;12.336;2023-08-20T10:36:56;30.30;99.90
19888;DHT22;10106;51.332;12.336;2023-08-20T10:39:22;30.30;99.90
19888;DHT22;10106;51.332;12.336;2023-08-20T10:41:48;30.20;99.90
19888;DHT22;10106;51.332;12.336;2023-08-20T10:47:17;30.20;99.90
19888;DHT22;10106;51.332;12.336;2023-08-20T10:49:43;30.30;99.90
19888;DHT22;10106;51.332;12.336;2023-08-20T10:52:09;30.10;99.90
19888;DHT22;10106;51.332;12.336;2023-08-20T10:54:40;29.90;99.90
19888;DHT22;10106;51.332;12.336;2023-08-20T10:57:06;29.90;99.90
19888;DHT22;10106;51.332;12.336;2023-08-20T10:59:35;30.10;99.90
19888;DHT22;10106;51.332;12.336;2023-08-20T11:02:04;30.40;99.90
19888;DHT22;10106;51.332;12.336;2023-08-20T11:04:38;30.60;99.90
19888;DHT22;10106;51.332;12.336;2023-08-20T11:07:05;30.70;99.90
19888;DHT22;10106;51.332;12.336;2023-08-20T11:09:30;30.80;99.90
19888;DHT22;10106;51.332;12.336;2023-08-20T11:11:56;30.80;99.90
19888;DHT22;10106;51.332;12.336;2023-08-20T11:14:25;30.70;99.90
19888;DHT22;10106;51.332;12.336;2023-08-20T11:16:54;30.40;99.90
19888;DHT22;10106;51.332;12.336;2023-08-20T11:19:21;30.30;99.90
19888;DHT22;10106;51.332;12.336;2023-08-20T11:21:47;30.00;99.90
19888;DHT22;10106;51.332;12.336;2023-08-20T11:24:13;30.00;99.90
19888;DHT22;10106;51.332;12.336;2023-08-20T11:26:40;30.20;99.90
19888;DHT22;10106;51.332;12.336;2023-08-20T11:29:09;30.30;99.90
19888;DHT22;10106;51.332;12.336;2023-08-20T11:31:35;30.60;99.90
19888;DHT22;10106;51.332;12.336;2023-08-20T11:34:02;30.60;99.90
19888;DHT22;10106;51.332;12.336;2023-08-20T11:36:28;30.60;99.90
19888;DHT22;10106;51.332;12.336;2023-08-20T11:38:53;30.70;99.90
19888;DHT22;10106;51.332;12.336;2023-08-20T11:41:19;30.80;99.90
19888;DHT22;10106;51.332;12.336;2023-08-20T11:43:48;31.00;99.90
19888;DHT22;10106;51.332;12.336;2023-08-20T11:46:15;31.10;99.90
19888;DHT22;10106;51.332;12.336;2023-08-20T11:49:00;31.10;99.90
19888;DHT22;10106;51.332;12.336;2023-08-20T11:51:26;31.40;99.90
19888;DHT22;10106;51.332;12.336;2023-08-20T11:53:52;31.50;99.90
19888;DHT22;10106;51.332;12.336;2023-08-20T11:56:17;31.30;99.90
19888;DHT22;10106;51.332;12.336;2023-08-20T11:58:43;31.00;99.90
19888;DHT22;10106;51.332;12.336;2023-08-20T12:01:10;31.00;99.90
19888;DHT22;10106;51.332;12.336;2023-08-20T12:03:38;31.20;99.90
19888;DHT22;10106;51.332;12.336;2023-08-20T12:06:20;31.20;99.90
19888;DHT22;10106;51.332;12.336;2023-08-20T12:08:46;31.10;99.90
19888;DHT22;10106;51.332;12.336;2023-08-20T12:11:12;30.90;99.90
19888;DHT22;10106;51.332;12.336;2023-08-20T12:13:38;31.00;99.90
19888;DHT22;10106;51.332;12.336;2023-08-20T12:16:04;31.10;99.90
19888;DHT22;10106;51.332;12.336;2023-08-20T12:18:30;31.30;99.90
19888;DHT22;10106;51.332;12.336;2023-08-20T12:20:57;31.40;99.90
19888;DHT22;10106;51.332;12.336;2023-08-20T12:23:25;31.30;99.90
19888;DHT22;10106;51.332;12.336;2023-08-20T12:25:51;31.40;99.90
19888;DHT22;10106;51.332;12.336;2023-08-20T12:28:17;31.40;99.90
19888;DHT22;10106;51.332;12.336;2023-08-20T12:30:43;31.50;99.90
19888;DHT22;10106;51.332;12.336;2023-08-20T12:33:09;31.50;99.90
19888;DHT22;10106;51.332;12.336;2023-08-20T12:35:36;31.50;99.90
19888;DHT22;10106;51.332;12.336;2023-08-20T12:38:02;31.40;99.90
19888;DHT22;10106;51.332;12.336;2023-08-20T12:40:28;31.40;99.90
19888;DHT22;10106;51.332;12.336;2023-08-20T12:42:54;31.00;99.90
19888;DHT22;10106;51.332;12.336;2023-08-20T12:45:20;31.00;99.90
19888;DHT22;10106;51.332;12.336;2023-08-20T12:47:45;31.10;99.90
19888;DHT22;10106;51.332;12.336;2023-08-20T12:50:11;31.30;99.90
19888;DHT22;10106;51.332;12.336;2023-08-20T12:52:40;31.40;99.90
19888;DHT22;10106;51.332;12.336;2023-08-20T12:55:06;31.50;99.90
19888;DHT22;10106;51.332;12.336;2023-08-20T12:57:33;31.60;99.90
19888;DHT22;10106;51.332;12.336;2023-08-20T13:00:01;31.60;99.90
19888;DHT22;10106;51.332;12.336;2023-08-20T13:02:32;31.30;99.90
19888;DHT22;10106;51.332;12.336;2023-08-20T13:05:01;31.30;99.90
19888;DHT22;10106;51.332;12.336;2023-08-20T13:07:27;31.10;99.90
19888;DHT22;10106;51.332;12.336;2023-08-20T13:09:53;31.10;99.90
19888;DHT22;10106;51.332;12.336;2023-08-20T13:12:19;31.00;99.90
19888;DHT22;10106;51.332;12.336;2023-08-20T13:14:47;31.10;99.90
19888;DHT22;10106;51.332;12.336;2023-08-20T13:17:13;30.90;99.90
19888;DHT22;10106;51.332;12.336;2023-08-20T13:19:39;30.90;99.90
19888;DHT22;10106;51.332;12.336;2023-08-20T13:22:04;30.70;99.90
19888;DHT22;10106;51.332;12.336;2023-08-20T13:24:30;30.80;99.90
19888;DHT22;10106;51.332;12.336;2023-08-20T13:26:56;30.60;99.90
19888;DHT22;10106;51.332;12.336;2023-08-20T13:29:21;30.40;99.90
19888;DHT22;10106;51.332;12.336;2023-08-20T13:31:47;30.20;99.90
19888;DHT22;10106;51.332;12.336;2023-08-20T13:34:13;30.30;99.90
19888;DHT22;10106;51.332;12.336;2023-08-20T13:36:39;30.30;99.90
19888;DHT22;10106;51.332;12.336;2023-08-20T13:39:04;30.30;99.90
19888;DHT22;10106;51.332;12.336;2023-08-20T13:41:30;30.40;99.90
19888;DHT22;10106;51.332;12.336;2023-08-20T13:43:56;30.40;99.90
19888;DHT22;10106;51.332;12.336;2023-08-20T13:46:22;30.40;99.90
19888;DHT22;10106;51.332;12.336;2023-08-20T13:48:53;30.20;99.90
19888;DHT22;10106;51.332;12.336;2023-08-20T13:51:18;30.10;99.90
19888;DHT22;10106;51.332;12.336;2023-08-20T13:53:44;29.90;99.90
19888;DHT22;10106;51.332;12.336;2023-08-20T13:56:10;29.80;99.90
19888;DHT22;10106;51.332;12.336;2023-08-20T13:58:36;29.70;99.90
19888;DHT22;10106;51.332;12.336;2023-08-20T14:01:02;29.60;99.90
19888;DHT22;10106;51.332;12.336;2023-08-20T14:03:28;29.60;99.90
19888;DHT22;10106;51.332;12.336;2023-08-20T14:05:53;29.40;99.90
19888;DHT22;10106;51.332;12.336;2023-08-20T14:08:19;29.40;99.90
19888;DHT22;10106;51.332;12.336;2023-08-20T14:10:47;29.20;99.90
19888;DHT22;10106;51.332;12.336;2023-08-20T14:13:13;29.00;99.90
19888;DHT22;10106;51.332;12.336;2023-08-20T14:15:38;29.10;99.90
19888;DHT22;10106;51.332;12.336;2023-08-20T14:18:04;29.10;99.90
19888;DHT22;10106;51.332;12.336;2023-08-20T14:20:29;29.10;99.90
19888;DHT22;10106;51.332;12.336;2023-08-20T14:22:55;29.10;99.90
19888;DHT22;10106;51.332;12.336;2023-08-20T14:25:20;28.90;99.90
19888;DHT22;10106;51.332;12.336;2023-08-20T14:27:46;28.90;99.90
19888;DHT22;10106;51.332;12.336;2023-08-20T14:30:12;28.90;99.90
19888;DHT22;10106;51.332;12.336;2023-08-20T14:32:37;29.00;99.90
19888;DHT22;10106;51.332;12.336;2023-08-20T14:35:03;29.00;99.90
19888;DHT22;10106;51.332;12.336;2023-08-20T14:37:29;28.80;99.90
19888;DHT22;10106;51.332;12.336;2023-08-20T14:39:55;28.70;99.90
19888;DHT22;10106;51.332;12.336;2023-08-20T15:00:34;28.20;99.90
19888;DHT22;10106;51.332;12.336;2023-08-20T15:03:02;28.20;99.90
19888;DHT22;10106;51.332;12.336;2023-08-20T15:05:34;28.20;99.90
19888;DHT22;10106;51.332;12.336;2023-08-20T15:08:03;28.10;99.90
19888;DHT22;10106;51.332;12.336;2023-08-20T15:10:37;28.20;99.90
19888;DHT22;10106;51.332;12.336;2023-08-20T15:13:15;28.00;99.90
19888;DHT22;10106;51.332;12.336;2023-08-20T15:18:46;27.90;99.90
19888;DHT22;10106;51.332;12.336;2023-08-20T15:21:23;27.90;99.90
19888;DHT22;10106;51.332;12.336;2023-08-20T15:30:24;28.10;99.90
19888;DHT22;10106;51.332;12.336;2023-08-20T15:32:47;28.20;99.90
19888;DHT22;10106;51.332;12.336;2023-08-20T15:35:33;28.10;99.90
19888;DHT22;10106;51.332;12.336;2023-08-20T15:38:02;28.10;99.90
19888;DHT22;10106;51.332;12.336;2023-08-20T15:40:57;28.20;99.90
19888;DHT22;10106;51.332;12.336;2023-08-20T15:49:25;28.10;99.90
19888;DHT22;10106;51.332;12.336;2023-08-20T15:51:53;28.20;99.90
19888;DHT22;10106;51.332;12.336;2023-08-20T15:54:19;28.20;99.90
19888;DHT22;10106;51.332;12.336;2023-08-20T15:59:54;28.20;99.90
19888;DHT22;10106;51.332;12.336;2023-08-20T16:02:23;28.10;99.90
19888;DHT22;10106;51.332;12.336;2023-08-20T16:04:51;28.00;99.90
19888;DHT22;10106;51.332;12.336;2023-08-20T16:10:26;28.10;99.90
19888;DHT22;10106;51.332;12.336;2023-08-20T16:12:55;28.00;99.90
19888;DHT22;10106;51.332;12.336;2023-08-20T16:15:21;28.00;99.90
19888;DHT22;10106;51.332;12.336;2023-08-20T16:17:52;27.90;99.90
19888;DHT22;10106;51.332;12.336;2023-08-20T16:20:22;27.90;99.90
19888;DHT22;10106;51.332;12.336;2023-08-20T16:22:48;27.90;99.90
19888;DHT22;10106;51.332;12.336;2023-08-20T16:25:14;27.90;99.90